地図

経路データ

SID SEASON NUMBER BASIN SUBBASIN NAME ISO_TIME NATURE LAT LON WMO_WIND WMO_PRES WMO_AGENCY TRACK_TYPE DIST2LAND LANDFALL IFLAG USA_AGENCY USA_ATCF_ID USA_LAT USA_LON USA_RECORD USA_STATUS USA_WIND USA_PRES USA_SSHS USA_R34_NE USA_R34_SE USA_R34_SW USA_R34_NW USA_R50_NE USA_R50_SE USA_R50_SW USA_R50_NW USA_R64_NE USA_R64_SE USA_R64_SW USA_R64_NW USA_POCI USA_ROCI USA_RMW USA_EYE TOKYO_LAT TOKYO_LON TOKYO_GRADE TOKYO_WIND TOKYO_PRES TOKYO_R50_DIR TOKYO_R50_LONG TOKYO_R50_SHORT TOKYO_R30_DIR TOKYO_R30_LONG TOKYO_R30_SHORT TOKYO_LAND CMA_LAT CMA_LON CMA_CAT CMA_WIND CMA_PRES HKO_LAT HKO_LON HKO_CAT HKO_WIND HKO_PRES NEWDELHI_LAT NEWDELHI_LON NEWDELHI_GRADE NEWDELHI_WIND NEWDELHI_PRES NEWDELHI_CI NEWDELHI_DP NEWDELHI_POCI REUNION_LAT REUNION_LON REUNION_TYPE REUNION_WIND REUNION_PRES REUNION_TNUM REUNION_CI REUNION_RMW REUNION_R34_NE REUNION_R34_SE REUNION_R34_SW REUNION_R34_NW REUNION_R50_NE REUNION_R50_SE REUNION_R50_SW REUNION_R50_NW REUNION_R64_NE REUNION_R64_SE REUNION_R64_SW REUNION_R64_NW BOM_LAT BOM_LON BOM_TYPE BOM_WIND BOM_PRES BOM_TNUM BOM_CI BOM_RMW BOM_R34_NE BOM_R34_SE BOM_R34_SW BOM_R34_NW BOM_R50_NE BOM_R50_SE BOM_R50_SW BOM_R50_NW BOM_R64_NE BOM_R64_SE BOM_R64_SW BOM_R64_NW BOM_ROCI BOM_POCI BOM_EYE BOM_POS_METHOD BOM_PRES_METHOD NADI_LAT NADI_LON NADI_CAT NADI_WIND NADI_PRES WELLINGTON_LAT WELLINGTON_LON WELLINGTON_WIND WELLINGTON_PRES DS824_LAT DS824_LON DS824_STAGE DS824_WIND DS824_PRES TD9636_LAT TD9636_LON TD9636_STAGE TD9636_WIND TD9636_PRES TD9635_LAT TD9635_LON TD9635_WIND TD9635_PRES TD9635_ROCI NEUMANN_LAT NEUMANN_LON NEUMANN_CLASS NEUMANN_WIND NEUMANN_PRES MLC_LAT MLC_LON MLC_CLASS MLC_WIND MLC_PRES USA_GUST BOM_GUST BOM_GUST_PER REUNION_GUST REUNION_GUST_PER USA_SEAHGT USA_SEARAD_NE USA_SEARAD_SE USA_SEARAD_SW USA_SEARAD_NW STORM_SPEED STORM_DIR
1937263N15317 1937 47 NA NA NOT_NAMED 1937-09-20 06:00:00 TS 15.2000 -43.3000 65 hurdat_atl main 1502 1474 O_____________ hurdat_atl AL081937 15.2000 -43.3000 HU 65 1 12 280
1937263N15317 1937 47 NA NA NOT_NAMED 1937-09-20 09:00:00 TS 15.3053 -43.9075 main 1474 1452 P_____________ AL081937 15.3053 -43.9076 HU 67 1 12 285
1937263N15317 1937 47 NA NA NOT_NAMED 1937-09-20 12:00:00 TS 15.5000 -44.5000 70 hurdat_atl main 1454 1443 O_____________ hurdat_atl AL081937 15.5000 -44.5000 HU 70 1 12 296
1937263N15317 1937 47 NA NA NOT_NAMED 1937-09-20 15:00:00 TS 15.8474 -45.0650 main 1442 1442 P_____________ AL081937 15.8474 -45.0650 HU 70 1 13 307
1937263N15317 1937 47 NA NA NOT_NAMED 1937-09-20 18:00:00 TS 16.3000 -45.6000 70 hurdat_atl main 1459 1459 O_____________ hurdat_atl AL081937 16.3000 -45.6000 HU 70 1 14 313
1937263N15317 1937 47 NA NA NOT_NAMED 1937-09-20 21:00:00 TS 16.7773 -46.1078 main 1479 1474 P_____________ AL081937 16.7773 -46.1078 HU 70 1 14 316
1937263N15317 1937 47 NA NA NOT_NAMED 1937-09-21 00:00:00 TS 17.3000 -46.6000 70 hurdat_atl main 1503 1503 O_____________ hurdat_atl AL081937 17.3000 -46.6000 HU 70 1 14 318
1937263N15317 1937 47 NA NA NOT_NAMED 1937-09-21 03:00:00 TS 17.8424 -47.1077 main 1530 1530 P_____________ AL081937 17.8424 -47.1077 HU 70 1 15 319
1937263N15317 1937 47 NA NA NOT_NAMED 1937-09-21 06:00:00 TS 18.4000 -47.6000 70 hurdat_atl main 1571 1571 O_____________ hurdat_atl AL081937 18.4000 -47.6000 HU 70 1 14 321
1937263N15317 1937 47 NA NA NOT_NAMED 1937-09-21 09:00:00 TS 18.9573 -48.0504 main 1608 1608 P_____________ AL081937 18.9573 -48.0504 HU 70 1 14 322
1937263N15317 1937 47 NA NA NOT_NAMED 1937-09-21 12:00:00 TS 19.5000 -48.5000 70 hurdat_atl main 1642 1642 O_____________ hurdat_atl AL081937 19.5000 -48.5000 HU 70 1 14 320
1937263N15317 1937 47 NA NA NOT_NAMED 1937-09-21 15:00:00 TS 20.0150 -49.0002 main 1653 1648 P_____________ AL081937 20.0150 -49.0002 HU 72 1 14 317
1937263N15317 1937 47 NA NA NOT_NAMED 1937-09-21 18:00:00 TS 20.5000 -49.5000 75 hurdat_atl main 1648 1646 O_____________ hurdat_atl AL081937 20.5000 -49.5000 HU 75 1 13 317
1937263N15317 1937 47 NA NA NOT_NAMED 1937-09-21 21:00:00 TS 20.9648 -49.9578 main 1646 1623 P_____________ AL081937 20.9648 -49.9578 HU 75 1 12 317
1937263N15317 1937 47 NA NA NOT_NAMED 1937-09-22 00:00:00 TS 21.4000 -50.4000 75 hurdat_atl main 1623 1588 O_____________ hurdat_atl AL081937 21.4000 -50.4000 HU 75 1 12 315
1937263N15317 1937 47 NA NA NOT_NAMED 1937-09-22 03:00:00 TS 21.8074 -50.8577 main 1580 1549 P_____________ AL081937 21.8074 -50.8577 HU 77 1 12 314
1937263N15317 1937 47 NA NA NOT_NAMED 1937-09-22 06:00:00 TS 22.2000 -51.3000 80 hurdat_atl main 1549 1518 O_____________ hurdat_atl AL081937 22.2000 -51.3000 HU 80 1 11 315
1937263N15317 1937 47 NA NA NOT_NAMED 1937-09-22 09:00:00 TS 22.6149 -51.7225 main 1520 1494 P_____________ AL081937 22.6149 -51.7225 HU 80 1 11 317
1937263N15317 1937 47 NA NA NOT_NAMED 1937-09-22 12:00:00 TS 23.0000 -52.1000 80 hurdat_atl main 1494 1472 O_____________ hurdat_atl AL081937 23.0000 -52.1000 HU 80 1 10 317
1937263N15317 1937 47 NA NA NOT_NAMED 1937-09-22 15:00:00 TS 23.3149 -52.4228 main 1475 1458 P_____________ AL081937 23.3149 -52.4228 HU 80 1 8 317
1937263N15317 1937 47 NA NA NOT_NAMED 1937-09-22 18:00:00 TS 23.6000 -52.7000 80 hurdat_atl main 1458 1442 O_____________ hurdat_atl AL081937 23.6000 -52.7000 HU 80 1 8 319
1937263N15317 1937 47 NA NA NOT_NAMED 1937-09-22 21:00:00 TS 23.9000 -52.9726 main 1442 1433 P_____________ AL081937 23.9000 -52.9726 HU 80 1 8 323
1937263N15317 1937 47 NA NA NOT_NAMED 1937-09-23 00:00:00 TS 24.2000 -53.2000 80 hurdat_atl main 1437 1433 O_____________ hurdat_atl AL081937 24.2000 -53.2000 HU 80 1 7 328
1937263N15317 1937 47 NA NA NOT_NAMED 1937-09-23 03:00:00 TS 24.4849 -53.3727 main 1433 1433 P_____________ AL081937 24.4849 -53.3727 HU 82 1 7 335
1937263N15317 1937 47 NA NA NOT_NAMED 1937-09-23 06:00:00 TS 24.8000 -53.5000 85 hurdat_atl main 1439 1439 O_____________ hurdat_atl AL081937 24.8000 -53.5000 HU 85 2 7 343
1937263N15317 1937 47 NA NA NOT_NAMED 1937-09-23 09:00:00 TS 25.1700 -53.6076 main 1452 1452 P_____________ AL081937 25.1700 -53.6076 HU 85 2 8 347
1937263N15317 1937 47 NA NA NOT_NAMED 1937-09-23 12:00:00 TS 25.6000 -53.7000 85 hurdat_atl main 1465 1465 O_____________ hurdat_atl AL081937 25.6000 -53.7000 HU 85 2 9 350
1937263N15317 1937 47 NA NA NOT_NAMED 1937-09-23 15:00:00 TS 26.0700 -53.7927 main 1486 1486 P_____________ AL081937 26.0700 -53.7927 HU 85 2 10 350
1937263N15317 1937 47 NA NA NOT_NAMED 1937-09-23 18:00:00 TS 26.6000 -53.9000 85 hurdat_atl main 1509 1509 O_____________ hurdat_atl AL081937 26.6000 -53.9000 HU 85 2 11 350
1937263N15317 1937 47 NA NA NOT_NAMED 1937-09-23 21:00:00 TS 27.1924 -54.0203 main 1541 1540 P_____________ AL081937 27.1924 -54.0203 HU 85 2 12 348
1937263N15317 1937 47 NA NA NOT_NAMED 1937-09-24 00:00:00 TS 27.8000 -54.2000 85 hurdat_atl main 1567 1567 O_____________ hurdat_atl AL081937 27.8000 -54.2000 HU 85 2 12 341
1937263N15317 1937 47 NA NA NOT_NAMED 1937-09-24 03:00:00 TS 28.3500 -54.4702 main 1589 1581 P_____________ AL081937 28.3500 -54.4702 HU 85 2 12 334
1937263N15317 1937 47 NA NA NOT_NAMED 1937-09-24 06:00:00 TS 28.9000 -54.8000 85 hurdat_atl main 1606 1606 O_____________ hurdat_atl AL081937 28.9000 -54.8000 HU 85 2 13 333
1937263N15317 1937 47 NA NA NOT_NAMED 1937-09-24 09:00:00 TS 29.4773 -55.1282 main 1633 1627 P_____________ AL081937 29.4773 -55.1282 HU 85 2 14 333
1937263N15317 1937 47 NA NA NOT_NAMED 1937-09-24 12:00:00 TS 30.1000 -55.5000 85 hurdat_atl main 1658 1647 O_____________ hurdat_atl AL081937 30.1000 -55.5000 HU 85 2 15 332
1937263N15317 1937 47 NA NA NOT_NAMED 1937-09-24 15:00:00 TS 30.7623 -55.9136 main 1638 1546 P_____________ AL081937 30.7623 -55.9136 HU 85 2 16 331
1937263N15317 1937 47 NA NA NOT_NAMED 1937-09-24 18:00:00 TS 31.5000 -56.4000 85 hurdat_atl main 1546 1445 O_____________ hurdat_atl AL081937 31.5000 -56.4000 HU 85 2 18 330
1937263N15317 1937 47 NA NA NOT_NAMED 1937-09-24 21:00:00 TS 32.3274 -56.9704 main 1441 1326 P_____________ AL081937 32.3274 -56.9704 HU 85 2 20 329
1937263N15317 1937 47 NA NA NOT_NAMED 1937-09-25 00:00:00 TS 33.2000 -57.6000 85 hurdat_atl main 1326 1221 O_____________ hurdat_atl AL081937 33.2000 -57.6000 HU 85 2 20 328
1937263N15317 1937 47 NA NA NOT_NAMED 1937-09-25 03:00:00 TS 34.0498 -58.2436 main 1221 1103 P_____________ AL081937 34.0498 -58.2436 HU 85 2 20 328
1937263N15317 1937 47 NA NA NOT_NAMED 1937-09-25 06:00:00 TS 34.9000 -58.9000 85 hurdat_atl main 1103 998 O_____________ hurdat_atl AL081937 34.9000 -58.9000 HU 85 2 20 327
1937263N15317 1937 47 NA NA NOT_NAMED 1937-09-25 09:00:00 TS 35.7122 -59.5524 main 994 890 P_____________ AL081937 35.7122 -59.5524 HU 85 2 20 328
1937263N15317 1937 47 NA NA NOT_NAMED 1937-09-25 12:00:00 TS 36.6000 -60.2000 85 hurdat_atl main 881 757 O_____________ hurdat_atl AL081937 36.6000 -60.2000 HU 85 2 22 332
1937263N15317 1937 47 NA NA NOT_NAMED 1937-09-25 15:00:00 TS 37.6773 -60.8577 main 743 621 P_____________ AL081937 37.6773 -60.8577 HU 82 1 24 335
1937263N15317 1937 47 NA NA NOT_NAMED 1937-09-25 18:00:00 TS 38.8000 -61.5000 80 hurdat_atl main 611 489 O_____________ hurdat_atl AL081937 38.8000 -61.5000 HU 80 1 24 335
1937263N15317 1937 47 NA NA NOT_NAMED 1937-09-25 21:00:00 TS 39.8523 -62.1306 main 479 368 P_____________ AL081937 39.8523 -62.1306 HU 77 1 22 335
1937263N15317 1937 47 NA NA NOT_NAMED 1937-09-26 00:00:00 TS 40.8000 -62.7000 75 hurdat_atl main 368 280 O_____________ hurdat_atl AL081937 40.8000 -62.7000 HU 75 1 19 334
1937263N15317 1937 47 NA NA NOT_NAMED 1937-09-26 03:00:00 TS 41.5875 -63.2693 main 267 191 P_____________ AL081937 41.5875 -63.2693 HU 72 1 16 336
1937263N15317 1937 47 NA NA NOT_NAMED 1937-09-26 06:00:00 ET 42.3000 -63.6000 70 hurdat_atl main 191 139 O_____________ hurdat_atl AL081937 42.3000 -63.6000 EX 70 -4 14 352
1937263N15317 1937 47 NA NA NOT_NAMED 1937-09-26 09:00:00 ET 42.9896 -63.5353 main 137 84 P_____________ AL081937 42.9896 -63.5353 EX 67 -4 15 11
1937263N15317 1937 47 NA NA NOT_NAMED 1937-09-26 12:00:00 ET 43.8000 -63.2000 65 hurdat_atl main 73 0 O_____________ hurdat_atl AL081937 43.8000 -63.2000 EX 65 -4 20 13
1937263N15317 1937 47 NA NA NOT_NAMED 1937-09-26 15:00:00 ET 44.8877 -62.9151 main 0 0 P_____________ AL081937 44.8877 -62.9151 EX 62 -4 24 15
1937263N15317 1937 47 NA NA NOT_NAMED 1937-09-26 18:00:00 ET 46.1000 -62.3000 60 hurdat_atl main 13 0 O_____________ hurdat_atl AL081937 46.1000 -62.3000 EX 60 -4 27 28
1937263N15317 1937 47 NA NA NOT_NAMED 1937-09-26 21:00:00 ET 47.2288 -61.1134 main 44 43 P_____________ AL081937 47.2288 -61.1134 EX 57 -4 29 39
1937263N15317 1937 47 NA NA NOT_NAMED 1937-09-27 00:00:00 ET 48.4000 -59.6000 55 hurdat_atl main 42 13 O_____________ hurdat_atl AL081937 48.4000 -59.6000 EX 55 -4 31 40
1937263N15317 1937 47 NA NA NOT_NAMED 1937-09-27 03:00:00 ET 49.6458 -58.1000 main 11 0 P_____________ AL081937 49.6458 -58.1000 EX 52 -4 33 38
1937263N15317 1937 47 NA NA NOT_NAMED 1937-09-27 06:00:00 ET 51.0000 -56.5000 50 hurdat_atl main 0 0 O_____________ hurdat_atl AL081937 51.0000 -56.5000 EX 50 -4 35 37
1937263N15317 1937 47 NA NA NOT_NAMED 1937-09-27 09:00:00 ET 52.4317 -54.7694 main 53 53 P_____________ AL081937 52.4317 -54.7694 EX 47 -4 37 35
1937263N15317 1937 47 NA NA NOT_NAMED 1937-09-27 12:00:00 ET 54.0000 -53.0000 45 hurdat_atl main 199 199 O_____________ hurdat_atl AL081937 54.0000 -53.0000 EX 45 -4 40 32
1937263N15317 1937 47 NA NA NOT_NAMED 1937-09-27 15:00:00 ET 55.7885 -51.1501 main 391 387 P_____________ AL081937 55.7885 -51.1501 EX 42 -4 40 29
1937263N15317 1937 47 NA NA NOT_NAMED 1937-09-27 18:00:00 ET 57.5000 -49.5000 40 hurdat_atl main 375 221 O_____________ hurdat_atl AL081937 57.5000 -49.5000 EX 40 -4 34 27
1937263N15317 1937 47 NA NA NOT_NAMED 1937-09-27 21:00:00 ET 58.8438 -48.2937 main 221 99 P_____________ AL081937 58.8438 -48.2937 EX 37 -4 27 22
1937263N15317 1937 47 NA NA NOT_NAMED 1937-09-28 00:00:00 ET 60.0000 -47.5000 35 hurdat_atl main 89 0 O_____________ hurdat_atl AL081937 60.0000 -47.5000 EX 35 -4 24 17
1937263N15317 1937 47 NA NA NOT_NAMED 1937-09-28 03:00:00 ET 61.1512 -46.8795 main 0 0 P_____________ AL081937 61.1512 -46.8795 EX 35 -4 22 12
1937263N15317 1937 47 NA NA NOT_NAMED 1937-09-28 06:00:00 ET 62.2000 -46.5000 35 hurdat_atl main 0 0 O_____________ hurdat_atl AL081937 62.2000 -46.5000 EX 35 -4 20 9
1937263N15317 1937 47 NA NA NOT_NAMED 1937-09-28 09:00:00 ET 63.1330 -46.2292 main 0 0 P_____________ AL081937 63.1330 -46.2292 EX 35 -4 18 7
1937263N15317 1937 47 NA NA NOT_NAMED 1937-09-28 12:00:00 ET 64.0000 -46.0000 35 hurdat_atl main 0 O_____________ hurdat_atl AL081937 64.0000 -46.0000 EX 35 -4 17 6

IBTrACS Databaseについて

本データベースは、米国NOAAが公開する1842年以降の世界の熱帯低気圧のベストトラックデータアーカイブInternational Best Track Archive for Climate Stewardship (IBTrACS)を、ウェブで閲覧しやすい形式に変換したものです。

最終更新日:2021-10-08